KDKK/DKK METAR and TAF weather

Enter ICAO airport designator
Station Type Date Time Source
KDKK METAR 2019/04/19 22:11 UTC NOAA

KDKK 192211Z AUTO 05010KT 3SM BR OVC002 06/05 A2962 RMK AO2 T00610050


Station Type Date Time Source
KDKK Decoded METAR 2019/04/19 22:11 UTC NOAA

CHAUTAUQUA COUNTY/DUNKIRK, NY, United States (KDKK) 42-30N 079-17W 202M
Apr 19, 2019 - 06:11 PM EDT / 2019.04.19 2211 UTC
Wind: from the NE (050 degrees) at 12 MPH (10 KT):0
Visibility: 3 mile(s):0
Sky conditions: overcast
Weather: mist
Temperature: 43.0 F (6.1 C)
Dew Point: 41.0 F (5.0 C)
Relative Humidity: 92%
Pressure (altimeter): 29.62 in. Hg (1003 hPa)
ob: KDKK 192211Z AUTO 05010KT 3SM BR OVC002 06/05 A2962 RMK AO2 T00610050
cycle: 22

Station Type Date Time Source
KDKK TAF UTC NOAA

Error!

Example: see airport list